Time;durP1;ratioP1;P1;durP2;ratioP2;P2;SDS_P1;SDS_P2;PMS_P1;PMS_P2;Temp;Humidity;BMP_temperature;BMP_pressure;BME280_temperature;BME280_humidity;BME280_pressure;Samples;Min_cycle;Max_cycle;Signal;HPM_P1;HPM_P2
2020/12/14 00:01:12;;;;;;;179.03;67.50;;;;;;;;;;5072749;28;20467;-63
2020/12/14 00:03:38;;;;;;;184.83;62.67;;;;;;;;;;5073475;28;20443;-64
2020/12/14 00:06:05;;;;;;;166.00;67.30;;;;;;;;;;5071985;28;21023;-64
2020/12/14 00:08:31;;;;;;;153.90;61.60;;;6.70;99.90;;;;;;5071474;28;20458;-64
2020/12/14 00:10:58;;;;;;;125.17;54.70;;;;;;;;;;5071757;28;20462;-63
2020/12/14 00:13:24;;;;;;;138.20;59.23;;;6.80;99.90;;;;;;5070596;28;20477;-64
2020/12/14 00:15:51;;;;;;;145.03;59.10;;;7.30;99.90;;;;;;5069566;28;20491;-64
2020/12/14 00:18:17;;;;;;;146.10;58.17;;;7.60;99.90;;;;;;5067114;28;20448;-64
2020/12/14 00:20:44;;;;;;;127.03;54.30;;;7.80;99.90;;;;;;5061512;28;20467;-63
2020/12/14 00:23:10;;;;;;;128.43;57.53;;;8.20;99.90;;;;;;5071041;28;20482;-64
2020/12/14 00:25:36;;;;;;;134.50;56.73;;;8.50;99.90;;;;;;5070430;28;20859;-64
2020/12/14 00:28:02;;;;;;;116.17;52.97;;;8.80;99.90;;;;;;5071963;28;20462;-64
2020/12/14 00:30:29;;;;;;;140.70;58.90;;;9.00;99.90;;;;;;5069033;28;20475;-64
2020/12/14 00:32:56;;;;;;;124.83;53.67;;;9.10;99.90;;;;;;5071639;28;20471;-65
2020/12/14 00:35:23;;;;;;;137.67;58.10;;;9.40;99.90;;;;;;5069667;28;20528;-65
2020/12/14 00:37:49;;;;;;;122.43;51.93;;;9.50;99.90;;;;;;5068897;28;20463;-68
2020/12/14 00:40:15;;;;;;;151.00;60.00;;;9.40;99.90;;;;;;5072533;28;20935;-65
2020/12/14 00:42:42;;;;;;;144.20;58.00;;;9.40;99.90;;;;;;5071494;28;20497;-65
2020/12/14 00:45:09;;;;;;;131.37;57.63;;;9.20;99.90;;;;;;5070609;28;20818;-65
2020/12/14 00:47:35;;;;;;;123.50;54.00;;;9.20;99.90;;;;;;5065410;28;20459;-65
2020/12/14 00:50:03;;;;;;;129.20;56.57;;;9.20;99.90;;;;;;5070088;28;20477;-64
2020/12/14 00:52:29;;;;;;;116.97;52.53;;;9.30;99.90;;;;;;5069175;28;20462;-65
2020/12/14 00:54:56;;;;;;;125.30;55.67;;;9.30;99.90;;;;;;5071873;28;20817;-65
2020/12/14 00:57:22;;;;;;;119.83;55.20;;;9.20;99.90;;;;;;5071736;28;20497;-65
2020/12/14 00:59:48;;;;;;;122.63;55.90;;;9.20;99.90;;;;;;5072104;28;20451;-65
2020/12/14 01:02:14;;;;;;;117.87;55.40;;;9.20;99.90;;;;;;5071629;28;20506;-65
2020/12/14 01:04:41;;;;;;;112.33;50.83;;;9.10;99.90;;;;;;5070037;28;20471;-64
2020/12/14 01:07:08;;;;;;;128.63;59.43;;;9.10;99.90;;;;;;5074167;28;20997;-65
2020/12/14 01:09:34;;;;;;;117.37;55.40;;;9.00;99.90;;;;;;5074366;28;20467;-65
2020/12/14 01:12:02;;;;;;;128.70;57.53;;;9.00;99.90;;;;;;5072210;28;20447;-67
2020/12/14 01:14:29;;;;;;;119.13;59.17;;;9.00;99.90;;;;;;5075083;28;20477;-64
2020/12/14 01:16:55;;;;;;;116.17;55.10;;;8.90;99.90;;;;;;5075462;28;20491;-64
2020/12/14 01:19:21;;;;;;;112.03;54.47;;;8.90;99.90;;;;;;5075204;28;20443;-65
2020/12/14 01:21:47;;;;;;;110.20;54.40;;;8.90;99.90;;;;;;5076598;28;20516;-64
2020/12/14 01:24:15;;;;;;;104.80;53.27;;;8.90;99.90;;;;;;5077458;28;20451;-65
2020/12/14 01:26:41;;;;;;;111.77;56.70;;;8.90;99.90;;;;;;5077234;28;20808;-65
2020/12/14 01:29:07;;;;;;;104.10;50.53;;;8.90;99.90;;;;;;5093183;28;20473;-64
2020/12/14 01:31:33;;;;;;;101.27;52.63;;;8.90;99.90;;;;;;5087975;28;20533;-64
2020/12/14 01:34:00;;;;;;;99.00;50.70;;;8.90;99.90;;;;;;5085828;28;21130;-67
2020/12/14 01:36:26;;;;;;;92.77;52.77;;;8.90;99.90;;;;;;5086569;28;20504;-65
2020/12/14 01:38:52;;;;;;;91.00;47.80;;;8.80;99.90;;;;;;5087528;28;20454;-65
2020/12/14 01:41:19;;;;;;;90.03;49.77;;;8.80;99.90;;;;;;5085966;28;20810;-64
2020/12/14 01:43:46;;;;;;;78.73;48.37;;;8.80;99.90;;;;;;5081406;28;20883;-64
2020/12/14 01:46:12;;;;;;;92.83;50.20;;;8.90;99.90;;;;;;5081579;28;20486;-65
2020/12/14 01:48:39;;;;;;;89.80;46.23;;;8.80;99.90;;;;;;5074445;28;20965;-65
2020/12/14 01:51:05;;;;;;;72.57;48.33;;;8.80;99.90;;;;;;5073936;28;20467;-64
2020/12/14 01:53:34;;;;;;;82.20;48.97;;;8.70;99.90;;;;;;5074929;28;20474;-64
2020/12/14 01:56:03;;;;;;;71.70;44.13;;;8.70;99.90;;;;;;5074039;28;20840;-65
2020/12/14 01:58:31;;;;;;;71.57;45.63;;;8.70;99.90;;;;;;5075125;28;20446;-67
2020/12/14 02:00:57;;;;;;;67.10;43.87;;;8.60;99.90;;;;;;5074600;28;20467;-67
2020/12/14 02:03:23;;;;;;;62.77;43.40;;;8.60;99.90;;;;;;5074704;28;20483;-65
2020/12/14 02:05:49;;;;;;;61.83;42.63;;;8.50;99.90;;;;;;5072322;28;20486;-64
2020/12/14 02:08:16;;;;;;;60.90;41.30;;;8.40;99.90;;;;;;5074533;28;20466;-66
2020/12/14 02:10:42;;;;;;;62.50;40.13;;;8.40;99.90;;;;;;5069808;28;21140;-65
2020/12/14 02:13:08;;;;;;;63.13;42.87;;;8.30;99.90;;;;;;5075156;28;20439;-63
2020/12/14 02:15:35;;;;;;;62.23;39.37;;;8.20;99.90;;;;;;5072920;28;21009;-64
2020/12/14 02:18:02;;;;;;;70.67;44.50;;;8.10;99.90;;;;;;5073800;28;20451;-65
2020/12/14 02:20:28;;;;;;;62.30;43.73;;;8.00;99.90;;;;;;5073656;28;20489;-65
2020/12/14 02:22:54;;;;;;;64.57;40.90;;;7.90;99.90;;;;;;5074798;28;20933;-67
2020/12/14 02:25:21;;;;;;;59.57;41.73;;;7.90;99.90;;;;;;5073356;28;20466;-67
2020/12/14 02:27:47;;;;;;;57.57;44.70;;;7.80;99.90;;;;;;5074493;28;20455;-66
2020/12/14 02:30:15;;;;;;;58.70;43.47;;;7.80;99.90;;;;;;5073667;28;20520;-66
2020/12/14 02:32:41;;;;;;;57.40;41.10;;;7.70;99.90;;;;;;5074541;28;20435;-65
2020/12/14 02:35:08;;;;;;;65.03;42.17;;;7.70;99.90;;;;;;5072771;28;20471;-65
2020/12/14 02:37:34;;;;;;;59.27;41.77;;;7.60;99.90;;;;;;5062967;28;20966;-66
2020/12/14 02:40:00;;;;;;;64.50;42.10;;;7.50;99.90;;;;;;5054894;28;20477;-66
2020/12/14 02:42:27;;;;;;;54.77;40.90;;;7.50;99.90;;;;;;5073132;28;20493;-65
2020/12/14 02:44:54;;;;;;;56.40;43.13;;;7.50;99.90;;;;;;5072504;28;20828;-67
2020/12/14 02:47:20;;;;;;;57.90;39.30;;;7.40;99.90;;;;;;5073440;28;20486;-65
2020/12/14 02:49:48;;;;;;;59.17;43.37;;;7.30;99.90;;;;;;5072960;28;20463;-64
2020/12/14 02:52:14;;;;;;;58.20;41.80;;;7.30;99.90;;;;;;5073411;28;20462;-65
2020/12/14 02:54:42;;;;;;;55.03;40.03;;;7.30;99.90;;;;;;5073184;28;20451;-66
2020/12/14 02:57:09;;;;;;;59.33;43.03;;;7.20;99.90;;;;;;5072930;28;20490;-65
2020/12/14 02:59:37;;;;;;;56.60;40.13;;;7.10;99.90;;;;;;5070512;28;20830;-64
2020/12/14 03:02:03;;;;;;;58.60;41.33;;;7.10;99.90;;;;;;5053833;28;20483;-65
2020/12/14 03:04:30;;;;;;;56.30;39.40;;;7.00;99.90;;;;;;5068565;28;20817;-64
2020/12/14 03:06:56;;;;;;;58.40;44.47;;;7.00;99.90;;;;;;5070884;28;20482;-67
2020/12/14 03:09:23;;;;;;;52.30;42.23;;;6.90;99.90;;;;;;5073474;28;20457;-65
2020/12/14 03:11:50;;;;;;;57.13;38.80;;;6.90;99.90;;;;;;5062336;28;20481;-65
2020/12/14 03:14:17;;;;;;;56.60;41.50;;;6.90;99.90;;;;;;5073057;28;20447;-65
2020/12/14 03:16:45;;;;;;;53.40;41.50;;;6.80;99.90;;;;;;5073437;28;20849;-64
2020/12/14 03:19:11;;;;;;;54.03;38.43;;;6.80;99.90;;;;;;5072736;28;20474;-65
2020/12/14 03:21:38;;;;;;;61.47;41.73;;;6.80;99.90;;;;;;5073013;28;20450;-65
2020/12/14 03:24:04;;;;;;;57.30;42.27;;;6.70;99.90;;;;;;5072282;28;20470;-63
2020/12/14 03:26:31;;;;;;;56.97;41.30;;;6.70;99.90;;;;;;5073770;28;20470;-64
2020/12/14 03:28:57;;;;;;;51.17;38.20;;;6.60;99.90;;;;;;5071049;28;20463;-66
2020/12/14 03:31:24;;;;;;;53.93;39.90;;;6.70;99.90;;;;;;5073221;28;20447;-64
2020/12/14 03:33:53;;;;;;;52.07;37.53;;;6.60;99.90;;;;;;5072004;28;20474;-64
2020/12/14 03:36:20;;;;;;;53.70;38.93;;;6.60;99.90;;;;;;5072768;28;20478;-64
2020/12/14 03:38:47;;;;;;;48.57;36.20;;;6.60;99.90;;;;;;5072006;28;20469;-64
2020/12/14 03:41:14;;;;;;;47.63;37.00;;;6.50;99.90;;;;;;5073025;28;20463;-64
2020/12/14 03:43:40;;;;;;;48.77;40.60;;;6.50;99.90;;;;;;5071381;28;20491;-64
2020/12/14 03:46:13;;;;;;;47.57;33.97;;;6.40;99.90;;;;;;5072495;28;20471;-63
2020/12/14 03:48:39;;;;;;;46.33;34.50;;;6.40;99.90;;;;;;5072301;28;20471;-64
2020/12/14 03:51:08;;;;;;;43.40;34.10;;;6.40;99.90;;;;;;5071902;28;20466;-64
2020/12/14 03:53:34;;;;;;;41.17;33.83;;;6.30;99.90;;;;;;5072877;28;20438;-63
2020/12/14 03:56:01;;;;;;;40.37;34.67;;;6.30;99.90;;;;;;5073662;28;20483;-64
2020/12/14 03:58:27;;;;;;;38.60;30.73;;;6.20;99.90;;;;;;5073184;28;20477;-64
2020/12/14 04:00:53;;;;;;;38.47;32.50;;;6.30;99.90;;;;;;5073327;28;20466;-64
2020/12/14 04:03:21;;;;;;;38.10;31.10;;;6.20;99.90;;;;;;5073448;28;21016;-64
2020/12/14 04:05:48;;;;;;;37.33;33.40;;;6.10;99.90;;;;;;5070742;28;20494;-64
2020/12/14 04:08:15;;;;;;;37.53;33.33;;;6.00;99.90;;;;;;5071397;28;20979;-65
2020/12/14 04:10:41;;;;;;;37.33;33.67;;;5.90;99.90;;;;;;5072522;28;20451;-64
2020/12/14 04:13:08;;;;;;;34.00;30.57;;;5.90;99.90;;;;;;5071567;28;20467;-64
2020/12/14 04:15:34;;;;;;;37.00;33.10;;;5.90;99.90;;;;;;5070384;28;20491;-64
2020/12/14 04:18:00;;;;;;;34.17;30.67;;;5.90;99.90;;;;;;5053309;28;20467;-67
2020/12/14 04:20:27;;;;;;;33.57;30.47;;;5.80;99.90;;;;;;5071766;28;20462;-64
2020/12/14 04:22:53;;;;;;;32.50;29.40;;;5.80;99.90;;;;;;5070891;28;20490;-62
2020/12/14 04:25:20;;;;;;;32.40;29.30;;;5.80;99.90;;;;;;5070660;28;20554;-63
2020/12/14 04:27:47;;;;;;;32.40;29.10;;;5.80;99.90;;;;;;5072088;28;20458;-64
2020/12/14 04:30:13;;;;;;;32.10;28.90;;;5.80;99.90;;;;;;5069290;28;20566;-66
2020/12/14 04:32:40;;;;;;;30.87;27.90;;;5.70;99.90;;;;;;5071846;28;20454;-63
2020/12/14 04:35:07;;;;;;;31.20;27.93;;;5.70;99.90;;;;;;5071142;28;20452;-64
2020/12/14 04:37:33;;;;;;;29.90;25.37;;;5.70;99.90;;;;;;5070715;28;20469;-63
2020/12/14 04:39:59;;;;;;;28.67;26.00;;;5.70;99.90;;;;;;5071346;28;20461;-64
2020/12/14 04:42:28;;;;;;;28.83;26.13;;;5.70;99.90;;;;;;5068762;28;20502;-67
2020/12/14 04:44:55;;;;;;;27.37;24.77;;;5.70;99.90;;;;;;5071595;28;20443;-65
2020/12/14 04:47:22;;;;;;;27.30;24.70;;;5.70;99.90;;;;;;5071241;28;20493;-65
2020/12/14 04:49:49;;;;;;;30.17;27.27;;;5.60;99.90;;;;;;5071861;28;20453;-67
2020/12/14 04:52:17;;;;;;;27.40;24.80;;;5.60;99.90;;;;;;5071637;28;20820;-67
2020/12/14 04:54:47;;;;;;;26.73;24.13;;;5.60;99.90;;;;;;5070640;28;20477;-66
2020/12/14 04:57:14;;;;;;;26.07;23.57;;;5.60;99.90;;;;;;5070765;28;20997;-66
2020/12/14 04:59:42;;;;;;;26.73;24.23;;;5.60;99.90;;;;;;5070907;28;20506;-66
2020/12/14 05:02:10;;;;;;;25.93;23.40;;;5.60;99.90;;;;;;5072236;28;20478;-65
2020/12/14 05:04:37;;;;;;;25.37;22.77;;;5.60;99.90;;;;;;5071218;28;20518;-64
2020/12/14 05:07:04;;;;;;;27.90;25.30;;;5.50;99.90;;;;;;5071079;28;20490;-66
2020/12/14 05:09:30;;;;;;;26.30;23.90;;;5.50;99.90;;;;;;5069486;28;20793;-66
2020/12/14 05:11:57;;;;;;;26.77;24.23;;;5.50;99.90;;;;;;5071290;28;20439;-66
2020/12/14 05:14:24;;;;;;;25.40;23.07;;;5.50;99.90;;;;;;5070323;28;20470;-66
2020/12/14 05:16:53;;;;;;;24.63;22.33;;;5.50;99.90;;;;;;5052304;28;20511;-66
2020/12/14 05:19:24;;;;;;;24.57;22.37;;;5.50;99.90;;;;;;5069331;28;21024;-66
2020/12/14 05:21:53;;;;;;;24.90;22.60;;;5.50;99.90;;;;;;5071120;28;20463;-67
2020/12/14 05:24:20;;;;;;;23.67;21.37;;;5.50;99.90;;;;;;5070498;28;20554;-66
2020/12/14 05:26:48;;;;;;;23.57;21.23;;;5.50;99.90;;;;;;5072079;28;20471;-63
2020/12/14 05:29:23;;;;;;;22.77;20.53;;;5.50;99.90;;;;;;5070807;28;20823;-66
2020/12/14 05:32:04;;;;;;;22.80;20.60;;;5.50;99.90;;;;;;5071124;28;20492;-66
2020/12/14 05:34:32;;;;;;;22.40;20.27;;;5.40;99.90;;;;;;5066901;28;20463;-68
2020/12/14 05:36:59;;;;;;;24.30;21.90;;;5.40;99.90;;;;;;5069355;28;20466;-66
2020/12/14 05:39:27;;;;;;;22.27;20.07;;;5.40;99.90;;;;;;5078452;22;20506;-66
2020/12/14 05:41:53;;;;;;;21.93;19.93;;;5.40;99.90;;;;;;5063569;28;20455;-65
2020/12/14 05:44:29;;;;;;;20.27;18.47;;;5.40;99.90;;;;;;5047471;28;20470;-67
2020/12/14 05:46:55;;;;;;;21.50;19.50;;;5.40;99.90;;;;;;5051315;28;20447;-67
2020/12/14 05:49:22;;;;;;;20.10;18.10;;;5.40;99.90;;;;;;5049864;28;20491;-67
2020/12/14 05:51:49;;;;;;;20.20;18.40;;;5.40;99.90;;;;;;5041229;28;20465;-68
2020/12/14 05:54:21;;;;;;;21.00;19.10;;;5.40;99.90;;;;;;5051873;28;20881;-66
2020/12/14 05:56:49;;;;;;;20.63;18.70;;;5.40;99.90;;;;;;5055323;28;20942;-67
2020/12/14 05:59:20;;;;;;;18.87;17.20;;;5.40;99.90;;;;;;5047733;28;21006;-68
2020/12/14 06:01:47;;;;;;;17.80;16.30;;;5.40;99.90;;;;;;5047353;28;20451;-67
2020/12/14 06:04:15;;;;;;;18.17;16.47;;;5.40;99.90;;;;;;5053420;28;20521;-67
2020/12/14 06:06:47;;;;;;;19.40;17.70;;;5.40;99.90;;;;;;5053693;28;20464;-67
2020/12/14 06:09:21;;;;;;;18.80;17.10;;;5.50;99.90;;;;;;5044371;28;20496;-67
2020/12/14 06:11:52;;;;;;;19.40;17.50;;;5.40;99.90;;;;;;5040809;28;20956;-67
2020/12/14 06:14:21;;;;;;;18.83;17.00;;;5.50;99.90;;;;;;5053968;28;20472;-66
2020/12/14 06:16:47;;;;;;;18.40;16.70;;;5.50;99.90;;;;;;5050917;28;20556;-66
2020/12/14 06:19:14;;;;;;;19.07;17.37;;;5.50;99.90;;;;;;5043840;28;20500;-66
2020/12/14 06:21:47;;;;;;;17.83;16.23;;;5.50;99.90;;;;;;5037223;28;20456;-68
2020/12/14 06:24:19;;;;;;;17.97;16.33;;;5.50;99.90;;;;;;5034655;28;20456;-68
2020/12/14 06:26:46;;;;;;;17.77;15.87;;;5.50;99.90;;;;;;5034983;28;20502;-68
2020/12/14 06:29:28;;;;;;;18.77;16.93;;;5.50;99.90;;;;;;5054785;28;20460;-68
2020/12/14 06:31:55;;;;;;;18.20;16.60;;;5.50;99.90;;;;;;5052409;28;20510;-67
2020/12/14 06:34:41;;;;;;;18.60;16.90;;;5.50;99.90;;;;;;5040576;28;20444;-67
2020/12/14 06:37:08;;;;;;;16.87;15.47;;;5.50;99.90;;;;;;5044936;28;20850;-67
2020/12/14 06:39:37;;;;;;;18.37;16.67;;;5.50;99.90;;;;;;5053181;28;20578;-67
2020/12/14 06:42:22;;;;;;;17.43;15.90;;;5.50;99.90;;;;;;5052243;28;20551;-68
2020/12/14 06:45:11;;;;;;;17.20;15.70;;;5.50;99.90;;;;;;5037551;28;20989;-67
2020/12/14 06:47:55;;;;;;;17.10;15.50;;;5.50;99.90;;;;;;5043559;28;20452;-68
2020/12/14 06:50:37;;;;;;;18.37;16.53;;;5.50;99.90;;;;;;5037925;28;20489;-68
2020/12/14 06:53:05;;;;;;;17.33;15.83;;;5.50;99.90;;;;;;5036603;28;20471;-67
2020/12/14 06:55:42;;;;;;;18.03;16.50;;;5.50;99.90;;;;;;5039025;28;20503;-67
2020/12/14 06:58:10;;;;;;;13.27;6.90;;;5.50;99.90;;;;;;5045171;28;20463;-69
2020/12/14 07:00:37;;;;;;;14.40;6.50;;;8.30;99.90;;;;;;5049800;28;20474;-65
2020/12/14 07:03:04;;;;;;;8.77;6.07;;;14.40;99.90;;;;;;5050351;28;20491;-68
2020/12/14 07:05:33;;;;;;;6.97;5.80;;;16.30;99.90;;;;;;5050818;28;20467;-68
2020/12/14 07:07:59;;;;;;;7.67;5.40;;;16.80;99.90;;;;;;5050849;28;20515;-68
2020/12/14 07:10:28;;;;;;;6.17;5.53;;;17.70;99.90;;;;;;5046408;28;20483;-68
2020/12/14 07:12:54;;;;;;;5.73;5.13;;;18.20;99.90;;;;;;5034742;28;20460;-68
2020/12/14 07:15:26;;;;;;;6.00;4.73;;;19.20;99.90;;;;;;5041069;28;20456;-68
2020/12/14 07:18:07;;;;;;;5.33;4.83;;;19.80;99.90;;;;;;5053465;28;20450;-68
2020/12/14 07:20:35;;;;;;;8.00;4.20;;;20.00;99.90;;;;;;5039045;28;20960;-67
2020/12/14 07:23:06;;;;;;;5.67;5.10;;;20.00;99.90;;;;;;5039691;28;20479;-66
2020/12/14 07:25:34;;;;;;;4.77;4.37;;;19.90;99.90;;;;;;5036136;28;20460;-68
2020/12/14 07:28:01;;;;;;;4.97;4.57;;;;;;;;;;5041855;28;20447;-68
2020/12/14 07:30:28;;;;;;;5.43;4.93;;;;;;;;;;5033034;28;21096;-68
2020/12/14 07:32:54;;;;;;;5.07;4.67;;;20.40;99.90;;;;;;5038077;28;20506;-68
2020/12/14 07:35:21;;;;;;;5.10;4.60;;;20.50;99.90;;;;;;5043550;28;20464;-68
2020/12/14 07:37:47;;;;;;;4.60;4.20;;;20.20;99.90;;;;;;5037091;28;20781;-68
2020/12/14 07:40:14;;;;;;;4.70;4.30;;;20.40;99.90;;;;;;5049030;28;20487;-68
2020/12/14 07:42:44;;;;;;;5.40;4.90;;;20.40;99.90;;;;;;5042390;28;20973;-68
2020/12/14 07:45:12;;;;;;;4.30;3.80;;;20.60;99.90;;;;;;5039252;28;20996;-67
2020/12/14 07:47:40;;;;;;;4.50;4.10;;;20.60;99.90;;;;;;5048864;28;20452;-68
2020/12/14 07:50:08;;;;;;;4.57;4.17;;;20.50;99.90;;;;;;5052215;28;20518;-67
2020/12/14 07:52:35;;;;;;;4.43;4.03;;;20.60;99.90;;;;;;5052402;28;20454;-68
2020/12/14 07:55:02;;;;;;;5.13;3.77;;;20.20;99.90;;;;;;5051210;28;20544;-69
2020/12/14 07:57:32;;;;;;;5.40;4.20;;;20.40;99.90;;;;;;5052468;28;20458;-67
2020/12/14 07:59:59;;;;;;;4.90;4.50;;;20.50;99.90;;;;;;5044860;28;20829;-67
2020/12/14 08:02:28;;;;;;;4.83;3.97;;;20.50;99.90;;;;;;5035017;28;20995;-67
2020/12/14 08:05:01;;;;;;;5.43;4.00;;;20.60;99.90;;;;;;5048466;28;20456;-66
2020/12/14 08:07:36;;;;;;;4.50;4.10;;;20.70;99.90;;;;;;5044324;28;20486;-67
2020/12/14 08:10:04;;;;;;;4.70;4.30;;;20.70;99.90;;;;;;5033976;28;20475;-68
2020/12/14 08:12:31;;;;;;;4.13;3.73;;;20.60;99.90;;;;;;5046142;28;20529;-67
2020/12/14 08:14:59;;;;;;;5.60;3.83;;;20.50;99.90;;;;;;5045254;28;20460;-67
2020/12/14 08:17:26;;;;;;;4.93;4.53;;;20.60;99.90;;;;;;5048052;28;20830;-68
2020/12/14 08:19:53;;;;;;;4.73;3.70;;;;;;;;;;5051346;28;20468;-66
2020/12/14 08:22:20;;;;;;;4.10;3.70;;;;;;;;;;5050249;28;20440;-68
2020/12/14 08:24:55;;;;;;;4.27;3.87;;;;;;;;;;5050197;28;20486;-67
2020/12/14 08:27:47;;;;;;;11.23;10.37;;;20.30;99.90;;;;;;5042260;28;20456;-66
2020/12/14 08:30:16;;;;;;;13.50;12.23;;;8.20;99.90;;;;;;5048486;28;20466;-64
2020/12/14 08:32:42;;;;;;;12.47;11.27;;;6.80;99.90;;;;;;5035057;28;20448;-66
2020/12/14 08:35:22;;;;;;;13.20;12.20;;;6.30;99.90;;;;;;5038064;28;20454;-64
2020/12/14 08:37:51;;;;;;;13.10;11.93;;;6.20;99.90;;;;;;5032226;28;20448;-66
2020/12/14 08:40:18;;;;;;;12.80;11.60;;;6.10;99.90;;;;;;5047790;28;20483;-65
2020/12/14 08:42:45;;;;;;;13.30;12.00;;;6.00;99.90;;;;;;5038109;28;21007;-65
2020/12/14 08:45:13;;;;;;;13.03;11.93;;;6.00;99.90;;;;;;5039114;28;20452;-70
2020/12/14 08:47:41;;;;;;;13.27;12.17;;;6.00;99.90;;;;;;5051761;28;20503;-70
2020/12/14 08:50:10;;;;;;;12.20;11.20;;;6.00;99.90;;;;;;5048470;28;20495;-69
2020/12/14 08:52:36;;;;;;;13.17;12.07;;;6.00;99.90;;;;;;5041967;28;20485;-69
2020/12/14 08:55:02;;;;;;;12.87;11.70;;;5.90;99.90;;;;;;5033029;28;20450;-70
2020/12/14 08:57:31;;;;;;;12.30;11.13;;;6.00;99.90;;;;;;5048276;28;20466;-70
2020/12/14 09:00:09;;;;;;;12.00;10.90;;;6.00;99.90;;;;;;5051836;28;20864;-70
2020/12/14 09:02:36;;;;;;;12.70;11.70;;;6.00;99.90;;;;;;5050685;28;20489;-69
2020/12/14 09:05:17;;;;;;;12.67;11.67;;;6.00;99.90;;;;;;5051489;28;20443;-72
2020/12/14 09:07:43;;;;;;;11.43;10.53;;;6.00;99.90;;;;;;5051609;28;20513;-72
2020/12/14 09:10:22;;;;;;;11.57;10.67;;;6.10;99.90;;;;;;5051766;28;20485;-72
2020/12/14 09:12:49;;;;;;;11.40;10.40;;;6.10;99.90;;;;;;5051436;28;20533;-72
2020/12/14 09:15:15;;;;;;;12.73;11.63;;;6.10;99.90;;;;;;5051163;28;20436;-72
2020/12/14 09:17:45;;;;;;;11.70;10.80;;;6.20;99.90;;;;;;5043381;28;20466;-72
2020/12/14 09:20:11;;;;;;;12.00;10.90;;;6.20;99.90;;;;;;5031749;28;20479;-72
2020/12/14 09:22:38;;;;;;;10.77;9.87;;;6.20;99.90;;;;;;5048873;28;20502;-69
2020/12/14 09:25:07;;;;;;;11.63;10.63;;;6.20;99.90;;;;;;5051244;28;20444;-70
2020/12/14 09:27:33;;;;;;;10.80;9.90;;;6.20;99.90;;;;;;5043202;28;20471;-69
2020/12/14 09:29:59;;;;;;;10.73;9.83;;;6.20;99.90;;;;;;5052408;28;20471;-66
2020/12/14 09:32:26;;;;;;;11.53;10.63;;;6.20;99.90;;;;;;5049790;28;20956;-70
2020/12/14 09:34:52;;;;;;;11.60;10.60;;;6.20;99.90;;;;;;5050772;28;20464;-71
2020/12/14 09:37:18;;;;;;;11.63;10.53;;;6.30;99.90;;;;;;5051261;28;20454;-70
2020/12/14 09:39:45;;;;;;;10.93;10.00;;;6.30;99.90;;;;;;5041434;28;20487;-70
2020/12/14 09:42:12;;;;;;;10.67;9.63;;;6.30;99.90;;;;;;5039351;28;20471;-71
2020/12/14 09:44:38;;;;;;;10.77;9.87;;;6.40;99.90;;;;;;5051117;28;20938;-71
2020/12/14 09:47:05;;;;;;;10.47;9.67;;;6.40;99.90;;;;;;5047116;28;20806;-71
2020/12/14 09:49:32;;;;;;;10.73;9.83;;;6.40;99.90;;;;;;5040925;28;20478;-70
2020/12/14 09:51:58;;;;;;;10.00;9.20;;;6.40;99.90;;;;;;5048440;28;20449;-70
2020/12/14 09:54:24;;;;;;;10.17;9.43;;;6.40;99.90;;;;;;5034774;28;20445;-70
2020/12/14 09:56:51;;;;;;;10.23;9.43;;;6.50;99.90;;;;;;5036936;28;20444;-68
2020/12/14 09:59:19;;;;;;;10.40;9.60;;;6.50;99.90;;;;;;5043884;28;20468;-68
2020/12/14 10:01:45;;;;;;;11.53;10.53;;;6.50;99.90;;;;;;5048746;28;20435;-70
2020/12/14 10:04:11;;;;;;;10.37;9.57;;;6.50;99.90;;;;;;5037849;28;20480;-70
2020/12/14 10:06:38;;;;;;;11.47;10.47;;;6.50;99.90;;;;;;5044917;28;20971;-70
2020/12/14 10:09:04;;;;;;;11.80;10.90;;;6.50;99.90;;;;;;5052375;28;20476;-71
2020/12/14 10:11:33;;;;;;;12.50;11.40;;;6.50;99.90;;;;;;5065247;28;20454;-71
2020/12/14 10:14:02;;;;;;;12.23;11.03;;;6.60;99.90;;;;;;5067278;28;20970;-71
2020/12/14 10:16:28;;;;;;;11.40;10.40;;;6.60;99.90;;;;;;5055580;28;20447;-70
2020/12/14 10:18:54;;;;;;;11.03;10.03;;;6.70;99.90;;;;;;5052657;28;20479;-71
2020/12/14 10:21:21;;;;;;;11.37;10.33;;;6.60;99.90;;;;;;5054726;28;20451;-70
2020/12/14 10:23:47;;;;;;;11.93;10.80;;;6.70;99.90;;;;;;5054210;28;20490;-70
2020/12/14 10:26:14;;;;;;;12.00;10.90;;;6.80;99.90;;;;;;5054585;28;20466;-70
2020/12/14 10:28:41;;;;;;;14.40;13.03;;;6.80;99.90;;;;;;5053887;28;20475;-70
2020/12/14 10:31:08;;;;;;;13.20;11.90;;;6.90;99.90;;;;;;5054305;28;20459;-70
2020/12/14 10:33:37;;;;;;;13.93;12.73;;;7.00;99.90;;;;;;5054231;28;20451;-70
2020/12/14 10:36:07;;;;;;;14.87;13.47;;;7.00;99.90;;;;;;5049388;28;20818;-70
2020/12/14 10:38:34;;;;;;;17.97;12.70;;;7.10;99.90;;;;;;5035737;28;20876;-70
2020/12/14 10:41:00;;;;;;;14.57;13.23;;;7.20;99.90;;;;;;5054708;28;20460;-70
2020/12/14 10:43:26;;;;;;;14.30;13.17;;;7.20;99.90;;;;;;5054085;28;20487;-70
2020/12/14 10:45:52;;;;;;;14.00;12.70;;;7.30;99.90;;;;;;5054092;28;20443;-70
2020/12/14 10:48:20;;;;;;;14.43;13.03;;;7.30;99.90;;;;;;5053827;28;20951;-70
2020/12/14 10:50:46;;;;;;;14.07;12.80;;;7.40;99.90;;;;;;5053761;28;20673;-70
2020/12/14 10:53:12;;;;;;;15.80;14.43;;;7.40;99.90;;;;;;5044110;28;20461;-70
2020/12/14 10:55:38;;;;;;;16.73;15.33;;;7.50;99.90;;;;;;5034078;28;20456;-70
2020/12/14 10:58:05;;;;;;;16.87;15.30;;;7.60;99.90;;;;;;5051363;28;20457;-72
2020/12/14 11:00:31;;;;;;;17.60;16.10;;;7.50;99.90;;;;;;5041890;28;20509;-72
2020/12/14 11:02:59;;;;;;;15.60;14.20;;;7.50;99.90;;;;;;5049279;28;20486;-71
2020/12/14 11:05:26;;;;;;;17.20;15.73;;;7.50;99.90;;;;;;5036951;28;20453;-71
2020/12/14 11:07:54;;;;;;;16.77;15.23;;;7.60;99.90;;;;;;5039995;28;21027;-71
2020/12/14 11:10:21;;;;;;;16.17;14.77;;;7.60;99.90;;;;;;5042455;28;20664;-71
2020/12/14 11:12:47;;;;;;;17.93;16.37;;;7.60;99.90;;;;;;5045723;28;20809;-71
2020/12/14 11:15:14;;;;;;;18.50;16.80;;;7.70;99.90;;;;;;5034210;28;20449;-71
2020/12/14 11:17:40;;;;;;;19.23;17.00;;;7.60;99.90;;;;;;5040540;28;20452;-71
2020/12/14 11:20:08;;;;;;;19.30;17.50;;;7.60;99.90;;;;;;5038649;28;20481;-71
2020/12/14 11:22:36;;;;;;;18.87;17.13;;;7.70;99.90;;;;;;5043555;28;20487;-72
2020/12/14 11:25:03;;;;;;;20.10;18.20;;;7.70;99.90;;;;;;5047015;28;20506;-74
2020/12/14 11:27:30;;;;;;;19.20;17.50;;;7.80;99.90;;;;;;5052842;28;20456;-72
2020/12/14 11:29:56;;;;;;;19.93;17.83;;;7.90;99.90;;;;;;5041014;28;20861;-73
2020/12/14 11:32:22;;;;;;;21.90;19.70;;;7.90;99.90;;;;;;5045228;28;20475;-73
2020/12/14 11:34:49;;;;;;;21.07;18.87;;;8.00;99.90;;;;;;5040005;28;20463;-73
2020/12/14 11:37:15;;;;;;;18.77;16.87;;;8.20;99.90;;;;;;5041293;28;20825;-71
2020/12/14 11:39:43;;;;;;;20.43;18.73;;;8.20;99.90;;;;;;5045919;28;20569;-70
2020/12/14 11:42:09;;;;;;;21.17;18.93;;;8.20;99.90;;;;;;5048838;28;20489;-72
2020/12/14 11:44:35;;;;;;;23.60;20.80;;;8.20;99.90;;;;;;5051853;28;20509;-75
2020/12/14 11:47:02;;;;;;;20.23;18.53;;;8.30;99.90;;;;;;5052445;28;20443;-73
2020/12/14 11:49:28;;;;;;;19.37;17.57;;;8.30;99.90;;;;;;5078550;22;20463;-66
2020/12/14 11:51:54;;;;;;;19.70;17.73;;;8.40;99.90;;;;;;5011313;28;20477;-66
2020/12/14 11:54:21;;;;;;;17.40;15.80;;;8.40;99.90;;;;;;5012503;28;20458;-68
2020/12/14 11:56:48;;;;;;;18.07;16.33;;;8.50;99.90;;;;;;5013038;28;20453;-68
2020/12/14 11:59:14;;;;;;;17.53;15.67;;;8.60;99.90;;;;;;5012532;28;20458;-66
2020/12/14 12:01:41;;;;;;;18.33;16.50;;;8.60;99.90;;;;;;5012855;28;20453;-67
2020/12/14 12:04:07;;;;;;;16.47;15.17;;;8.60;99.90;;;;;;5002954;28;20486;-68
2020/12/14 12:06:34;;;;;;;15.80;14.40;;;8.70;99.90;;;;;;5013316;28;20468;-66
2020/12/14 12:09:00;;;;;;;15.10;13.90;;;8.60;99.90;;;;;;5012776;28;20453;-65
2020/12/14 12:11:26;;;;;;;16.70;15.30;;;8.80;99.90;;;;;;5011191;28;20485;-66
2020/12/14 12:13:53;;;;;;;16.53;14.90;;;8.90;99.90;;;;;;5011879;28;20453;-66
2020/12/14 12:16:20;;;;;;;16.43;14.93;;;8.90;99.90;;;;;;5012001;28;20458;-66
2020/12/14 12:18:48;;;;;;;17.47;15.90;;;8.90;99.90;;;;;;5012209;28;20822;-66
2020/12/14 12:21:16;;;;;;;16.17;14.73;;;8.80;99.90;;;;;;5012308;28;20855;-65
2020/12/14 12:23:42;;;;;;;17.00;15.63;;;8.80;99.90;;;;;;5012075;28;20484;-66
2020/12/14 12:26:08;;;;;;;15.70;14.10;;;8.80;99.90;;;;;;5012942;28;20449;-66
2020/12/14 12:28:35;;;;;;;16.27;14.70;;;8.80;99.90;;;;;;5012430;28;20454;-64
2020/12/14 12:31:02;;;;;;;16.20;14.83;;;8.80;99.90;;;;;;5012428;28;20478;-66
2020/12/14 12:33:28;;;;;;;17.10;15.50;;;8.80;99.90;;;;;;5011649;28;20449;-66
2020/12/14 12:35:54;;;;;;;16.67;14.97;;;8.90;99.90;;;;;;5012041;28;20450;-66
2020/12/14 12:38:21;;;;;;;16.27;14.77;;;8.80;99.90;;;;;;5012030;28;20465;-65
2020/12/14 12:40:48;;;;;;;16.87;15.17;;;8.90;99.90;;;;;;5012065;28;20560;-66
2020/12/14 12:43:14;;;;;;;16.53;15.00;;;8.90;99.90;;;;;;5012812;28;20512;-66